Time;durP1;ratioP1;P1;durP2;ratioP2;P2;SDS_P1;SDS_P2;PMS_P1;PMS_P2;Temp;Humidity;BMP_temperature;BMP_pressure;BME280_temperature;BME280_humidity;BME280_pressure;Samples;Min_cycle;Max_cycle;Signal;HPM_P1;HPM_P2
2022/09/13 00:02:08;;;;;;;16.87;11.23;;;10.60;99.90;;;;;;4897855;29;20573;-81
2022/09/13 00:04:41;;;;;;;16.60;11.67;;;10.50;99.90;;;;;;4898285;29;20200;-82
2022/09/13 00:07:20;;;;;;;16.80;11.43;;;10.50;99.90;;;;;;4897954;29;20266;-82
2022/09/13 00:09:47;;;;;;;15.67;10.33;;;10.40;99.90;;;;;;4899240;29;20208;-82
2022/09/13 00:12:14;;;;;;;16.60;11.13;;;10.40;99.90;;;;;;4913567;29;20211;-81
2022/09/13 00:14:41;;;;;;;14.70;10.53;;;10.30;99.90;;;;;;4897652;29;20203;-82
2022/09/13 00:17:11;;;;;;;16.07;11.07;;;10.30;99.90;;;;;;4908208;29;20206;-82
2022/09/13 00:19:38;;;;;;;16.13;10.70;;;10.40;99.90;;;;;;4916598;29;20301;-80
2022/09/13 00:22:05;;;;;;;16.47;10.80;;;10.30;99.90;;;;;;4916892;29;20255;-82
2022/09/13 00:24:41;;;;;;;13.90;10.37;;;10.30;99.90;;;;;;4916654;29;20737;-81
2022/09/13 00:27:15;;;;;;;19.43;11.13;;;10.30;99.90;;;;;;4916240;29;20195;-81
2022/09/13 00:29:48;;;;;;;17.10;10.20;;;10.20;99.90;;;;;;4917419;29;20295;-81
2022/09/13 00:32:15;;;;;;;17.13;10.40;;;10.20;99.90;;;;;;4917360;29;20247;-81
2022/09/13 00:34:42;;;;;;;15.57;10.60;;;10.10;99.90;;;;;;4900892;29;20204;-81
2022/09/13 00:37:09;;;;;;;15.67;10.50;;;10.20;99.90;;;;;;4916388;29;20198;-80
2022/09/13 00:39:36;;;;;;;15.20;10.53;;;10.20;99.90;;;;;;4916208;29;20599;-80
2022/09/13 00:42:03;;;;;;;15.90;11.03;;;10.20;99.90;;;;;;4916231;29;20209;-81
2022/09/13 00:44:52;;;;;;;17.17;11.27;;;10.20;99.90;;;;;;4915504;29;20223;-81
2022/09/13 00:47:22;;;;;;;18.53;12.30;;;10.20;99.90;;;;;;4915562;29;20256;-84
2022/09/13 00:50:01;;;;;;;23.20;12.60;;;10.20;99.90;;;;;;4917431;29;20608;-81
2022/09/13 00:52:31;;;;;;;17.37;11.90;;;10.20;99.90;;;;;;4915787;29;20609;-81
2022/09/13 00:55:04;;;;;;;17.50;12.27;;;10.30;99.90;;;;;;4916771;29;20607;-81
2022/09/13 00:57:34;;;;;;;18.30;12.77;;;10.30;99.90;;;;;;4900081;29;20235;-80
2022/09/13 01:00:11;;;;;;;18.07;12.23;;;10.20;99.90;;;;;;4916163;29;20672;-81
2022/09/13 01:02:50;;;;;;;16.80;12.17;;;10.20;99.90;;;;;;4915712;29;20207;-82
2022/09/13 01:05:21;;;;;;;19.30;12.70;;;10.20;99.90;;;;;;4916248;29;20214;-82
2022/09/13 01:07:49;;;;;;;18.13;13.00;;;10.30;99.90;;;;;;4922503;23;20230;-83
2022/09/13 01:10:39;;;;;;;17.80;12.43;;;10.30;99.90;;;;;;4917044;29;20198;-83
2022/09/13 01:16:40;;;;;;;21.87;12.67;;;10.20;99.90;;;;;;5007824;23;20235;-83
2022/09/13 01:19:13;;;;;;;19.07;13.30;;;10.20;99.90;;;;;;4915890;29;20196;-83
2022/09/13 01:22:27;;;;;;;19.20;13.53;;;10.20;99.90;;;;;;4915554;29;20260;-85
2022/09/13 01:25:16;;;;;;;20.60;13.63;;;10.20;99.90;;;;;;4931911;23;20235;-85
2022/09/13 01:28:07;;;;;;;19.90;13.03;;;10.10;99.90;;;;;;4918981;29;20202;-84
2022/09/13 01:30:43;;;;;;;23.63;13.50;;;10.10;99.90;;;;;;4936070;29;20205;-84
2022/09/13 01:34:05;;;;;;;20.37;13.47;;;10.10;99.90;;;;;;4934411;29;20680;-84
2022/09/13 01:37:03;;;;;;;18.43;13.03;;;10.00;99.90;;;;;;4935675;29;20247;-83
2022/09/13 01:40:05;;;;;;;18.77;13.13;;;10.00;99.90;;;;;;4941528;23;20230;-84
2022/09/13 01:42:51;;;;;;;17.87;13.17;;;10.00;99.90;;;;;;4903039;29;20678;-85
2022/09/13 01:45:37;;;;;;;18.40;13.33;;;9.90;99.90;;;;;;4928387;23;20638;-84
2022/09/13 01:48:26;;;;;;;23.07;13.07;;;9.90;99.90;;;;;;4935688;29;20309;-83
2022/09/13 01:51:30;;;;;;;18.60;13.20;;;10.00;99.90;;;;;;4936620;29;20216;-82
2022/09/13 01:54:32;;;;;;;18.70;13.60;;;9.90;99.90;;;;;;4944621;23;20332;-83
2022/09/13 01:57:35;;;;;;;17.43;12.77;;;9.90;99.90;;;;;;4937864;29;20301;-83
2022/09/13 02:00:09;;;;;;;16.83;12.23;;;9.80;99.90;;;;;;4919107;29;20660;-83
2022/09/13 02:03:17;;;;;;;23.27;13.67;;;9.80;99.90;;;;;;4919869;29;20191;-83
2022/09/13 02:06:08;;;;;;;19.50;13.30;;;9.80;99.90;;;;;;4846697;29;20243;-83
2022/09/13 02:08:59;;;;;;;20.93;14.43;;;9.80;99.90;;;;;;4788487;30;20236;-82
2022/09/13 02:11:49;;;;;;;21.13;13.73;;;9.70;99.90;;;;;;4788965;29;20364;-83
2022/09/13 02:15:17;;;;;;;20.97;13.97;;;9.70;99.90;;;;;;4785605;29;20721;-83
2022/09/13 02:18:50;;;;;;;21.60;14.57;;;9.70;99.90;;;;;;4669257;30;20223;-83
2022/09/13 02:21:47;;;;;;;22.97;14.10;;;9.60;99.90;;;;;;4668949;30;20196;-83
2022/09/13 02:24:26;;;;;;;21.17;14.37;;;9.60;99.90;;;;;;4648348;30;20219;-81
2022/09/13 02:30:33;;;;;;;22.07;14.80;;;9.60;99.90;;;;;;4683256;30;20208;-83
2022/09/13 02:36:11;;;;;;;20.60;14.30;;;9.60;99.90;;;;;;4873637;23;20651;-83
2022/09/13 02:39:01;;;;;;;19.67;14.07;;;9.50;99.90;;;;;;4899573;29;20209;-83
2022/09/13 02:42:00;;;;;;;19.27;14.07;;;9.50;99.90;;;;;;4899161;29;20211;-84
2022/09/13 02:44:33;;;;;;;22.63;13.93;;;9.50;99.90;;;;;;4932158;23;20702;-83
2022/09/13 02:47:34;;;;;;;21.20;13.87;;;9.50;99.90;;;;;;4899258;29;20616;-83
2022/09/13 02:50:44;;;;;;;20.43;13.67;;;9.40;99.90;;;;;;4899221;29;20279;-83
2022/09/13 02:53:54;;;;;;;21.70;14.43;;;9.40;99.90;;;;;;4898991;29;20207;-83
2022/09/13 02:56:43;;;;;;;21.80;13.37;;;9.40;99.90;;;;;;4845497;29;20206;-81
2022/09/13 02:59:15;;;;;;;22.13;13.73;;;9.30;99.90;;;;;;4845400;29;20276;-83
2022/09/13 03:01:57;;;;;;;21.10;13.50;;;9.30;99.90;;;;;;4844718;29;20610;-81
2022/09/13 03:04:29;;;;;;;19.40;13.00;;;9.20;99.90;;;;;;4845226;29;20695;-82
2022/09/13 03:06:59;;;;;;;19.07;13.27;;;9.20;99.90;;;;;;4845608;29;20648;-84
2022/09/13 03:09:59;;;;;;;18.30;12.80;;;9.20;99.90;;;;;;4844484;29;20233;-83
2022/09/13 03:13:14;;;;;;;17.73;13.03;;;9.10;99.90;;;;;;4830148;29;20301;-84
2022/09/13 03:15:56;;;;;;;18.93;12.50;;;9.10;99.90;;;;;;4877285;23;20265;-84
2022/09/13 03:18:39;;;;;;;17.93;12.33;;;9.10;99.90;;;;;;4920907;29;20675;-83
2022/09/13 03:21:48;;;;;;;15.67;11.00;;;9.00;99.90;;;;;;4936634;29;20584;-83
2022/09/13 03:24:54;;;;;;;19.20;12.20;;;9.00;99.90;;;;;;4860862;29;20307;-83
2022/09/13 03:27:40;;;;;;;19.47;12.27;;;9.00;99.90;;;;;;4845393;29;20209;-84
2022/09/13 03:30:37;;;;;;;18.60;11.90;;;8.90;99.90;;;;;;4843673;29;20217;-83
2022/09/13 03:33:19;;;;;;;17.57;11.87;;;8.90;99.90;;;;;;4845075;29;20257;-83
2022/09/13 03:35:56;;;;;;;17.60;11.20;;;8.90;99.90;;;;;;4860259;29;20214;-83
2022/09/13 03:38:50;;;;;;;17.30;11.80;;;8.90;99.90;;;;;;4829727;29;20268;-81
2022/09/13 03:41:51;;;;;;;17.00;11.50;;;8.90;99.90;;;;;;4844863;29;20198;-80
2022/09/13 03:44:30;;;;;;;15.53;11.17;;;8.80;99.90;;;;;;4830963;29;20713;-80
2022/09/13 03:47:05;;;;;;;15.30;10.47;;;8.70;99.90;;;;;;4844278;29;20671;-81
2022/09/13 03:49:37;;;;;;;15.97;10.63;;;8.60;99.90;;;;;;4844366;29;20233;-81
2022/09/13 03:52:06;;;;;;;16.00;10.37;;;8.60;99.90;;;;;;4844546;29;20204;-81
2022/09/13 03:54:37;;;;;;;15.63;10.17;;;8.50;99.90;;;;;;4859877;29;20229;-81
2022/09/13 03:57:09;;;;;;;15.20;10.63;;;8.60;99.90;;;;;;4844729;29;20300;-81
2022/09/13 03:59:43;;;;;;;15.20;10.40;;;8.50;99.90;;;;;;4867427;29;20208;-80
2022/09/13 04:02:11;;;;;;;16.03;10.60;;;8.50;99.90;;;;;;4916454;29;20235;-80
2022/09/13 04:04:39;;;;;;;15.50;10.33;;;8.50;99.90;;;;;;4917197;29;20678;-80
2022/09/13 04:07:07;;;;;;;16.80;11.00;;;8.50;99.90;;;;;;4916868;29;20200;-81
2022/09/13 04:09:34;;;;;;;14.73;10.13;;;8.40;99.90;;;;;;4932479;29;20275;-81
2022/09/13 04:12:15;;;;;;;13.73;9.80;;;8.40;99.90;;;;;;4932308;29;20194;-80
2022/09/13 04:14:43;;;;;;;14.63;9.93;;;8.30;99.90;;;;;;4917716;29;20656;-79
2022/09/13 04:17:12;;;;;;;17.23;10.30;;;8.30;99.90;;;;;;4932368;29;20239;-80
2022/09/13 04:19:49;;;;;;;14.13;10.17;;;8.30;99.90;;;;;;4936766;29;20284;-79
2022/09/13 04:22:20;;;;;;;17.40;10.53;;;8.30;99.90;;;;;;4919525;29;20205;-80
2022/09/13 04:24:47;;;;;;;16.00;10.10;;;8.30;99.90;;;;;;4919850;29;20203;-79
2022/09/13 04:27:14;;;;;;;16.60;10.83;;;8.30;99.90;;;;;;4904061;29;20203;-80
2022/09/13 04:29:41;;;;;;;15.73;10.90;;;8.40;99.90;;;;;;4919472;29;20698;-80
2022/09/13 04:32:09;;;;;;;15.90;10.10;;;8.30;99.90;;;;;;4919309;29;20206;-80
2022/09/13 04:34:37;;;;;;;15.67;10.90;;;8.30;99.90;;;;;;4944727;23;20248;-81
2022/09/13 04:37:04;;;;;;;15.90;10.40;;;8.20;99.90;;;;;;4919528;29;20219;-80
2022/09/13 04:39:37;;;;;;;14.43;10.37;;;8.30;99.90;;;;;;4919407;29;20202;-80
2022/09/13 04:42:06;;;;;;;14.10;10.37;;;8.30;99.90;;;;;;4919335;29;20214;-80
2022/09/13 04:44:35;;;;;;;15.37;10.60;;;8.20;99.90;;;;;;4919479;29;20696;-80
2022/09/13 04:47:29;;;;;;;15.53;10.00;;;8.30;99.90;;;;;;4903345;29;20284;-80
2022/09/13 04:50:03;;;;;;;14.83;10.47;;;8.30;99.90;;;;;;4919282;29;20289;-80
2022/09/13 04:52:30;;;;;;;14.33;10.40;;;8.30;99.90;;;;;;4919111;29;20257;-79
2022/09/13 04:55:00;;;;;;;14.30;10.60;;;8.40;99.90;;;;;;4918873;29;20222;-79
2022/09/13 04:57:30;;;;;;;14.57;10.37;;;8.40;99.90;;;;;;4919373;29;20228;-81
2022/09/13 04:59:58;;;;;;;13.50;10.10;;;8.40;99.90;;;;;;4919275;29;20279;-80
2022/09/13 05:02:35;;;;;;;14.77;10.37;;;8.40;99.90;;;;;;4919112;29;20214;-80
2022/09/13 05:05:03;;;;;;;17.07;10.50;;;8.50;99.90;;;;;;4915398;29;20199;-80
2022/09/13 05:07:33;;;;;;;13.73;10.10;;;8.50;99.90;;;;;;4888822;29;20203;-80
2022/09/13 05:10:01;;;;;;;14.10;10.20;;;8.60;99.90;;;;;;4903271;29;20251;-80
2022/09/13 05:12:27;;;;;;;12.67;9.67;;;8.60;99.90;;;;;;4919074;29;20199;-80
2022/09/13 05:14:54;;;;;;;14.80;10.50;;;8.70;99.90;;;;;;4918990;29;20648;-80
2022/09/13 05:17:22;;;;;;;17.23;10.53;;;8.70;99.90;;;;;;4918784;29;20216;-80
2022/09/13 05:19:52;;;;;;;17.17;11.57;;;8.90;99.90;;;;;;4919077;29;20194;-80
2022/09/13 05:22:19;;;;;;;14.97;10.10;;;8.90;99.90;;;;;;4918886;29;20199;-79
2022/09/13 05:24:49;;;;;;;16.83;11.20;;;9.00;99.90;;;;;;4919282;29;20201;-80
2022/09/13 05:27:16;;;;;;;15.27;11.17;;;9.00;99.90;;;;;;4939829;29;20187;-79
2022/09/13 05:29:43;;;;;;;15.43;11.20;;;9.10;99.90;;;;;;4922814;29;20229;-79
2022/09/13 05:32:10;;;;;;;14.57;10.53;;;9.20;99.90;;;;;;4922426;29;20212;-79
2022/09/13 05:34:37;;;;;;;13.93;10.50;;;9.30;99.90;;;;;;4922429;29;20232;-78
2022/09/13 05:37:14;;;;;;;18.20;11.60;;;9.40;99.90;;;;;;4922491;29;20213;-78
2022/09/13 05:39:41;;;;;;;17.43;11.03;;;9.50;99.90;;;;;;4922627;29;20207;-78
2022/09/13 05:42:32;;;;;;;16.90;10.70;;;9.50;99.90;;;;;;4922509;29;20300;-79
2022/09/13 05:44:59;;;;;;;15.50;10.97;;;9.60;99.90;;;;;;4922978;29;20220;-79
2022/09/13 05:47:26;;;;;;;14.03;10.13;;;9.70;99.90;;;;;;4939441;29;20664;-78
2022/09/13 05:49:53;;;;;;;12.73;9.27;;;9.80;99.90;;;;;;4922705;29;20256;-78
2022/09/13 05:52:40;;;;;;;13.63;9.40;;;9.90;99.90;;;;;;4922440;29;20293;-79
2022/09/13 05:55:07;;;;;;;12.93;9.60;;;9.90;99.90;;;;;;4939320;29;20218;-80
2022/09/13 05:57:36;;;;;;;13.40;9.30;;;10.10;99.90;;;;;;4922459;29;20673;-80
2022/09/13 06:00:04;;;;;;;12.73;9.33;;;10.10;99.90;;;;;;4922300;29;20218;-79
2022/09/13 06:02:31;;;;;;;13.93;9.37;;;10.20;99.90;;;;;;4922097;29;20211;-80
2022/09/13 06:04:58;;;;;;;14.70;8.77;;;10.40;99.90;;;;;;4922186;29;20692;-80
2022/09/13 06:07:28;;;;;;;12.37;9.27;;;10.30;99.90;;;;;;4957498;23;20292;-80
2022/09/13 06:09:57;;;;;;;12.57;9.00;;;10.50;99.90;;;;;;4958484;29;20554;-80
2022/09/13 06:12:24;;;;;;;12.43;8.87;;;10.50;99.90;;;;;;4958132;29;20672;-79
2022/09/13 06:14:51;;;;;;;13.20;9.40;;;10.50;99.90;;;;;;4941014;28;20292;-79
2022/09/13 06:17:27;;;;;;;11.20;8.33;;;10.70;99.90;;;;;;4940995;29;20226;-79
2022/09/13 06:19:55;;;;;;;11.53;8.53;;;10.60;99.90;;;;;;4941015;29;20261;-82
2022/09/13 06:22:31;;;;;;;12.67;8.30;;;10.70;99.90;;;;;;4940717;29;20202;-81
2022/09/13 06:24:59;;;;;;;12.77;8.47;;;10.70;99.90;;;;;;4940428;29;20289;-79
2022/09/13 06:27:30;;;;;;;13.53;8.40;;;10.70;99.90;;;;;;4957987;29;20628;-79
2022/09/13 06:29:57;;;;;;;11.83;9.00;;;10.80;99.90;;;;;;4941136;29;20322;-78
2022/09/13 06:32:24;;;;;;;14.33;8.90;;;10.90;99.90;;;;;;4940524;29;20293;-78
2022/09/13 06:35:02;;;;;;;12.43;8.93;;;11.00;99.90;;;;;;4940670;29;20636;-79
2022/09/13 06:37:29;;;;;;;13.33;9.03;;;11.10;99.90;;;;;;4940313;29;20234;-80
2022/09/13 06:39:56;;;;;;;13.13;9.40;;;11.20;99.90;;;;;;4957942;28;20519;-79
2022/09/13 06:42:23;;;;;;;12.73;9.60;;;11.30;99.90;;;;;;4940506;29;20198;-78
2022/09/13 06:44:50;;;;;;;11.13;8.87;;;11.40;99.90;;;;;;4940930;29;20554;-79
2022/09/13 06:47:17;;;;;;;12.30;9.03;;;11.50;99.90;;;;;;4940449;29;20676;-78
2022/09/13 06:49:44;;;;;;;12.30;9.00;;;11.60;99.90;;;;;;4940258;29;20246;-79
2022/09/13 06:52:17;;;;;;;12.23;9.27;;;11.70;99.90;;;;;;4940247;29;20186;-79
2022/09/13 06:54:44;;;;;;;11.17;8.90;;;11.80;99.90;;;;;;4940243;29;20246;-79
2022/09/13 06:57:11;;;;;;;12.53;9.20;;;11.90;99.90;;;;;;4940415;29;20202;-77
2022/09/13 06:59:38;;;;;;;12.60;8.83;;;12.00;99.90;;;;;;4940246;29;20213;-79
2022/09/13 07:02:13;;;;;;;11.17;8.47;;;12.10;99.90;;;;;;4957161;29;20245;-77
2022/09/13 07:04:40;;;;;;;11.17;8.43;;;12.20;99.90;;;;;;4940066;29;20205;-76
2022/09/13 07:07:07;;;;;;;12.83;8.73;;;12.30;99.90;;;;;;4936630;29;20223;-76
2022/09/13 07:09:34;;;;;;;11.57;8.70;;;12.40;99.90;;;;;;4937183;29;20620;-77
2022/09/13 07:12:01;;;;;;;12.03;8.90;;;12.40;99.90;;;;;;4937066;29;20211;-78
2022/09/13 07:14:28;;;;;;;13.57;8.80;;;12.50;99.90;;;;;;4937221;29;20290;-76
2022/09/13 07:16:59;;;;;;;14.13;9.27;;;12.60;99.90;;;;;;4936608;29;20198;-77
2022/09/13 07:19:28;;;;;;;13.43;9.20;;;12.70;99.90;;;;;;4937830;29;20558;-78
2022/09/13 07:21:56;;;;;;;11.53;8.80;;;12.70;99.90;;;;;;4936459;29;20199;-79
2022/09/13 07:24:24;;;;;;;12.77;9.30;;;12.80;99.90;;;;;;4936545;29;20191;-77
2022/09/13 07:26:51;;;;;;;13.50;9.43;;;12.90;99.90;;;;;;4936566;29;20190;-78
2022/09/13 07:29:22;;;;;;;12.63;9.30;;;13.00;99.90;;;;;;4936337;29;20254;-77
2022/09/13 07:31:51;;;;;;;12.90;9.40;;;13.10;99.90;;;;;;4936712;29;20297;-77
2022/09/13 07:34:20;;;;;;;13.40;9.87;;;13.10;99.90;;;;;;4936469;29;20198;-77
2022/09/13 07:36:48;;;;;;;14.17;10.03;;;13.20;99.90;;;;;;4936423;29;20199;-77
2022/09/13 07:39:16;;;;;;;14.20;10.47;;;13.30;99.90;;;;;;4936346;29;20206;-78
2022/09/13 07:41:49;;;;;;;14.43;10.33;;;13.40;99.90;;;;;;4936210;29;20234;-77
2022/09/13 07:44:16;;;;;;;15.03;10.50;;;13.40;99.90;;;;;;4937387;29;20238;-76
2022/09/13 07:46:43;;;;;;;14.27;10.43;;;13.50;99.90;;;;;;4935981;29;20207;-77
2022/09/13 07:49:11;;;;;;;14.27;10.37;;;13.50;99.90;;;;;;4935182;29;20560;-76
2022/09/13 07:51:41;;;;;;;16.33;11.00;;;13.60;99.90;;;;;;4935998;29;20195;-76
2022/09/13 07:54:13;;;;;;;16.43;10.37;;;13.70;99.90;;;;;;4935984;29;20558;-76
2022/09/13 07:56:41;;;;;;;17.70;11.43;;;13.80;99.90;;;;;;4935978;29;20205;-77
2022/09/13 07:59:13;;;;;;;15.07;10.67;;;13.90;99.90;;;;;;4935926;29;20213;-77
2022/09/13 08:01:42;;;;;;;15.10;9.90;;;14.10;99.90;;;;;;4935937;29;20548;-77
2022/09/13 08:04:12;;;;;;;15.67;10.70;;;14.10;99.90;;;;;;4936023;29;20690;-77
2022/09/13 08:06:40;;;;;;;15.93;11.43;;;14.40;99.90;;;;;;4935640;29;20616;-77
2022/09/13 08:09:08;;;;;;;19.77;10.73;;;14.50;99.90;;;;;;4935582;29;20191;-77
2022/09/13 08:11:41;;;;;;;18.10;10.43;;;14.80;99.90;;;;;;4935623;29;20656;-78
2022/09/13 08:14:11;;;;;;;12.70;7.63;;;14.90;99.90;;;;;;4937032;29;20595;-76
2022/09/13 08:16:38;;;;;;;11.37;7.63;;;15.20;99.90;;;;;;4935430;29;20299;-77
2022/09/13 08:19:07;;;;;;;15.07;8.30;;;15.50;99.90;;;;;;4936565;29;20194;-76
2022/09/13 08:21:41;;;;;;;14.70;9.60;;;15.80;99.90;;;;;;4935493;29;20237;-78
2022/09/13 08:24:13;;;;;;;13.83;9.20;;;16.40;99.90;;;;;;4935706;29;20266;-79
2022/09/13 08:26:40;;;;;;;13.87;8.90;;;17.20;99.90;;;;;;4935763;29;20199;-76
2022/09/13 08:29:07;;;;;;;16.03;9.27;;;17.80;99.90;;;;;;4935635;29;20187;-78
2022/09/13 08:31:35;;;;;;;16.93;9.37;;;18.50;99.90;;;;;;4935248;29;20274;-79
2022/09/13 08:34:02;;;;;;;14.80;9.67;;;19.00;99.90;;;;;;4935088;29;20289;-79
2022/09/13 08:36:29;;;;;;;15.73;8.90;;;19.20;99.90;;;;;;4936576;29;20542;-78
2022/09/13 08:38:59;;;;;;;12.43;8.73;;;19.40;99.90;;;;;;4935245;29;20293;-79
2022/09/13 08:41:51;;;;;;;13.03;8.60;;;19.70;99.90;;;;;;4935125;29;20294;-79
2022/09/13 08:44:46;;;;;;;12.77;8.37;;;19.90;99.90;;;;;;4935111;29;20260;-78
2022/09/13 08:47:20;;;;;;;13.83;8.93;;;20.10;99.90;;;;;;4935083;29;20202;-77
2022/09/13 08:49:53;;;;;;;11.13;8.00;;;19.90;99.90;;;;;;4934783;29;20250;-78
2022/09/13 08:52:46;;;;;;;12.73;8.20;;;20.10;99.90;;;;;;4934849;29;20242;-78
2022/09/13 08:55:33;;;;;;;16.47;8.67;;;20.50;99.90;;;;;;4934769;29;20223;-77
2022/09/13 08:58:16;;;;;;;12.90;8.13;;;21.10;99.90;;;;;;4935349;29;20210;-79
2022/09/13 09:00:57;;;;;;;10.30;7.03;;;21.20;99.90;;;;;;4933881;29;20207;-78
2022/09/13 09:03:45;;;;;;;11.00;7.50;;;20.20;99.90;;;;;;4934681;29;20656;-78
2022/09/13 09:06:15;;;;;;;14.47;7.70;;;20.00;99.90;;;;;;4935747;29;20206;-77
2022/09/13 09:08:46;;;;;;;7.73;5.67;;;20.00;99.90;;;;;;4938200;29;20202;-76
2022/09/13 09:11:42;;;;;;;5.77;4.10;;;20.30;99.90;;;;;;4954965;28;20573;-77
2022/09/13 09:14:31;;;;;;;4.77;3.10;;;20.60;99.90;;;;;;4937998;29;20202;-75
2022/09/13 09:17:03;;;;;;;6.10;3.13;;;20.30;99.90;;;;;;4937917;29;20195;-78
2022/09/13 09:19:43;;;;;;;6.50;3.13;;;20.20;99.90;;;;;;4937808;28;20274;-78
2022/09/13 09:22:17;;;;;;;4.10;3.00;;;20.00;99.90;;;;;;4954948;28;20200;-77
2022/09/13 09:24:55;;;;;;;4.77;3.20;;;20.40;99.90;;;;;;4922605;29;20205;-76
2022/09/13 09:27:22;;;;;;;7.17;2.97;;;19.90;99.90;;;;;;4937921;29;20206;-74
2022/09/13 09:29:53;;;;;;;4.63;3.33;;;19.80;99.90;;;;;;4954939;28;20668;-75
2022/09/13 09:32:32;;;;;;;4.17;3.27;;;20.10;99.90;;;;;;4937617;29;20212;-76
2022/09/13 09:35:14;;;;;;;6.30;3.30;;;19.90;99.90;;;;;;4937676;29;20671;-74
2022/09/13 09:37:44;;;;;;;5.20;3.30;;;20.00;99.90;;;;;;4937901;29;20205;-74
2022/09/13 09:40:13;;;;;;;4.87;3.40;;;20.20;99.90;;;;;;4938079;29;20202;-75
2022/09/13 09:42:46;;;;;;;5.07;3.43;;;20.60;99.90;;;;;;4937515;28;20237;-75
2022/09/13 09:45:32;;;;;;;6.27;3.40;;;21.10;99.90;;;;;;4938161;29;20198;-76
2022/09/13 09:48:06;;;;;;;4.53;3.10;;;21.20;99.90;;;;;;4937756;29;20198;-75
2022/09/13 09:50:38;;;;;;;4.37;3.27;;;21.30;99.90;;;;;;4937602;29;20268;-78
2022/09/13 09:53:15;;;;;;;5.13;3.47;;;21.60;99.90;;;;;;4937529;29;20199;-77
2022/09/13 09:55:59;;;;;;;3.67;3.20;;;21.60;99.90;;;;;;4937810;29;20218;-78
2022/09/13 09:58:38;;;;;;;4.87;3.30;;;21.50;99.90;;;;;;4954875;28;20663;-77
2022/09/13 10:01:15;;;;;;;4.67;3.30;;;21.40;99.90;;;;;;4937735;29;20237;-77
2022/09/13 10:04:02;;;;;;;8.20;3.20;;;21.30;99.90;;;;;;4937311;28;20202;-77
2022/09/13 10:06:30;;;;;;;4.17;2.27;;;20.70;99.90;;;;;;4937422;29;20700;-77
2022/09/13 10:09:02;;;;;;;3.57;2.30;;;21.10;99.90;;;;;;4937634;29;20205;-76
2022/09/13 10:11:52;;;;;;;3.93;2.20;;;20.90;99.90;;;;;;4938075;29;20281;-77
2022/09/13 10:14:28;;;;;;;4.97;2.77;;;21.60;99.90;;;;;;4940869;29;20253;-79
2022/09/13 10:17:21;;;;;;;5.30;2.93;;;21.80;99.90;;;;;;4940967;29;20205;-78
2022/09/13 10:20:20;;;;;;;3.47;2.50;;;22.20;99.90;;;;;;4937878;29;20656;-77
2022/09/13 10:23:15;;;;;;;5.13;2.50;;;22.40;99.90;;;;;;4958092;29;20206;-78
2022/09/13 10:25:57;;;;;;;4.57;2.60;;;22.60;99.90;;;;;;4941209;29;20194;-80
2022/09/13 10:28:25;;;;;;;4.90;2.50;;;21.90;99.90;;;;;;4940965;29;20206;-80
2022/09/13 10:31:03;;;;;;;3.93;2.20;;;21.70;99.90;;;;;;4941000;29;20222;-78
2022/09/13 10:33:38;;;;;;;3.87;1.80;;;21.20;99.90;;;;;;4940675;29;20575;-78
2022/09/13 10:36:15;;;;;;;3.73;2.00;;;20.90;99.90;;;;;;4957564;28;20198;-76
2022/09/13 10:39:07;;;;;;;3.03;1.70;;;20.50;99.90;;;;;;4940736;29;20194;-76
2022/09/13 10:41:38;;;;;;;3.47;1.80;;;20.40;99.90;;;;;;4940284;29;20664;-78
2022/09/13 10:44:21;;;;;;;5.07;1.80;;;20.70;99.90;;;;;;4940796;29;20198;-77
2022/09/13 10:46:49;;;;;;;5.37;1.83;;;20.80;99.90;;;;;;4957939;29;20206;-77
2022/09/13 10:49:44;;;;;;;3.20;1.80;;;20.30;99.90;;;;;;4939980;29;20212;-76
2022/09/13 10:52:35;;;;;;;3.80;1.80;;;20.20;99.90;;;;;;4940104;28;20230;-76
2022/09/13 10:55:22;;;;;;;3.93;2.30;;;20.20;99.90;;;;;;4940383;29;20218;-77
2022/09/13 10:58:13;;;;;;;3.90;1.90;;;20.00;99.90;;;;;;4940348;29;20198;-77
2022/09/13 11:01:01;;;;;;;2.43;1.50;;;20.40;99.90;;;;;;4857865;29;20206;-81
2022/09/13 11:04:10;;;;;;;2.13;1.60;;;20.40;99.90;;;;;;4845146;29;20201;-75
2022/09/13 11:06:44;;;;;;;2.40;1.50;;;20.70;99.90;;;;;;4845093;29;20278;-77
2022/09/13 11:09:17;;;;;;;2.50;1.60;;;21.10;99.90;;;;;;4860862;29;20667;-78
2022/09/13 11:12:05;;;;;;;4.23;1.50;;;21.00;99.90;;;;;;4845375;29;20747;-77
2022/09/13 11:14:53;;;;;;;3.17;1.70;;;21.10;99.90;;;;;;4845359;29;20205;-81
2022/09/13 11:17:38;;;;;;;2.17;1.70;;;21.10;99.90;;;;;;4860209;29;20210;-80
2022/09/13 11:20:32;;;;;;;3.00;1.70;;;21.20;99.90;;;;;;4860173;29;20208;-83
2022/09/13 11:23:05;;;;;;;2.10;1.80;;;21.10;99.90;;;;;;4859412;29;20206;-80
2022/09/13 11:25:46;;;;;;;3.70;1.70;;;21.30;99.90;;;;;;4844963;29;20217;-81
2022/09/13 11:29:01;;;;;;;4.70;2.10;;;21.40;99.90;;;;;;4860264;29;20273;-76
2022/09/13 11:31:34;;;;;;;5.07;2.00;;;21.40;99.90;;;;;;4848186;29;20240;-77
2022/09/13 11:34:19;;;;;;;3.87;1.67;;;21.10;99.90;;;;;;4844619;29;20301;-77
2022/09/13 11:36:58;;;;;;;4.47;1.90;;;21.00;99.90;;;;;;4869235;29;20210;-78
2022/09/13 11:39:42;;;;;;;4.87;2.00;;;21.00;99.90;;;;;;4939685;29;20257;-80
2022/09/13 11:42:31;;;;;;;3.80;2.10;;;20.90;99.90;;;;;;4939280;29;20257;-78
2022/09/13 11:45:15;;;;;;;3.30;1.90;;;20.80;99.90;;;;;;4939651;29;20241;-77
2022/09/13 11:48:10;;;;;;;2.87;1.87;;;20.90;99.90;;;;;;4924351;29;20667;-78
2022/09/13 11:50:56;;;;;;;4.93;2.00;;;21.20;99.90;;;;;;4939062;29;20309;-78
2022/09/13 11:53:49;;;;;;;4.33;2.10;;;21.30;99.90;;;;;;4939488;29;20222;-77
2022/09/13 11:56:26;;;;;;;4.43;1.80;;;21.00;99.90;;;;;;4956515;29;20198;-78
2022/09/13 11:59:17;;;;;;;2.43;1.80;;;20.90;99.90;;;;;;4939293;29;20312;-79
2022/09/13 12:01:50;;;;;;;4.97;2.03;;;21.00;99.90;;;;;;4939068;29;20198;-80
2022/09/13 12:04:24;;;;;;;2.63;2.00;;;21.00;99.90;;;;;;4939177;29;20202;-79
2022/09/13 12:07:11;;;;;;;3.50;2.10;;;20.80;99.90;;;;;;4935237;29;20570;-78
2022/09/13 12:09:50;;;;;;;3.10;2.20;;;21.20;99.90;;;;;;4935851;29;20563;-78
2022/09/13 12:12:25;;;;;;;2.90;2.10;;;21.30;99.90;;;;;;4935532;29;20249;-78
2022/09/13 12:15:01;;;;;;;3.77;2.40;;;21.30;99.90;;;;;;4935885;29;20225;-77
2022/09/13 12:17:38;;;;;;;3.63;2.37;;;21.30;99.90;;;;;;4935779;29;20258;-78
2022/09/13 12:20:38;;;;;;;3.83;2.40;;;21.10;99.90;;;;;;4935330;29;20207;-79
2022/09/13 12:23:14;;;;;;;5.10;2.43;;;21.00;99.90;;;;;;4936594;29;20206;-81
2022/09/13 12:25:57;;;;;;;3.83;2.17;;;20.80;99.90;;;;;;4935936;29;20198;-79
2022/09/13 12:28:41;;;;;;;2.77;2.03;;;21.00;99.90;;;;;;4935866;29;20214;-80
2022/09/13 12:31:18;;;;;;;5.10;2.20;;;21.20;99.90;;;;;;4935362;29;20229;-78
2022/09/13 12:33:46;;;;;;;4.50;2.77;;;21.30;99.90;;;;;;4935718;29;20552;-81
2022/09/13 12:36:28;;;;;;;5.57;2.40;;;20.90;99.90;;;;;;4935375;29;20199;-80
2022/09/13 12:39:33;;;;;;;5.00;2.50;;;20.60;99.90;;;;;;4935281;29;20205;-77
2022/09/13 12:42:29;;;;;;;4.63;2.87;;;20.30;99.90;;;;;;4918741;29;20206;-78
2022/09/13 12:45:25;;;;;;;4.03;2.70;;;20.00;99.90;;;;;;4935154;29;20199;-78
2022/09/13 12:48:19;;;;;;;4.00;2.70;;;20.10;99.90;;;;;;4934929;29;20207;-78
2022/09/13 12:51:17;;;;;;;4.00;2.90;;;20.10;99.90;;;;;;4934800;29;20211;-77
2022/09/13 12:54:31;;;;;;;6.00;2.73;;;20.10;99.90;;;;;;4934705;29;20213;-80
2022/09/13 12:57:19;;;;;;;4.80;2.97;;;20.00;99.90;;;;;;4919026;29;20564;-79
2022/09/13 13:00:01;;;;;;;4.53;2.97;;;19.80;99.90;;;;;;5007088;23;20189;-78
2022/09/13 13:02:39;;;;;;;5.00;3.20;;;19.60;99.90;;;;;;4941323;28;20208;-80
2022/09/13 13:05:25;;;;;;;7.50;3.37;;;19.40;99.90;;;;;;4957426;28;20209;-79
2022/09/13 13:07:55;;;;;;;6.03;3.30;;;19.30;99.90;;;;;;4957280;28;20208;-80
2022/09/13 13:10:37;;;;;;;4.33;3.27;;;19.40;99.90;;;;;;4957421;28;20206;-80
2022/09/13 13:13:13;;;;;;;4.33;2.93;;;19.30;99.90;;;;;;4957157;28;20205;-78
2022/09/13 13:15:43;;;;;;;4.73;3.20;;;19.40;99.90;;;;;;4941330;28;20246;-79
2022/09/13 13:18:47;;;;;;;5.50;3.40;;;19.50;99.90;;;;;;4957291;28;20528;-78
2022/09/13 13:21:30;;;;;;;4.80;3.40;;;19.70;99.90;;;;;;4974182;28;20551;-77
2022/09/13 13:24:32;;;;;;;6.93;3.40;;;19.70;99.90;;;;;;4974544;28;20198;-78
2022/09/13 13:26:59;;;;;;;5.20;3.20;;;19.70;99.90;;;;;;4877375;29;20270;-78
2022/09/13 13:29:30;;;;;;;6.27;3.40;;;19.70;99.90;;;;;;4877405;29;20209;-79
2022/09/13 13:31:57;;;;;;;8.63;4.23;;;19.60;99.90;;;;;;4876934;29;20238;-79
2022/09/13 13:35:15;;;;;;;4.17;3.10;;;19.60;99.90;;;;;;4861635;29;20220;-80
2022/09/13 13:37:43;;;;;;;6.73;3.60;;;19.50;99.90;;;;;;4861851;29;20357;-80
2022/09/13 13:40:22;;;;;;;5.50;3.53;;;19.40;99.90;;;;;;4861828;29;20201;-80
2022/09/13 13:42:49;;;;;;;5.43;3.60;;;19.40;99.90;;;;;;4861709;29;20625;-79
2022/09/13 13:45:23;;;;;;;4.83;3.60;;;19.40;99.90;;;;;;4861670;29;20197;-78